Time;durP1;ratioP1;P1;durP2;ratioP2;P2;SDS_P1;SDS_P2;PMS_P1;PMS_P2;Temp;Humidity;BMP_temperature;BMP_pressure;BME280_temperature;BME280_humidity;BME280_pressure;Samples;Min_cycle;Max_cycle;Signal;HPM_P1;HPM_P2
2023/07/29 00:02:00;;;;;;;17.10;8.50;;;;;;;;;;7327585;19;140232;-84
2023/07/29 00:04:28;;;;;;;16.63;7.93;;;;;;;;;;7334251;19;140787;-83
2023/07/29 00:06:55;;;;;;;18.65;8.55;;;;;;;;;;7333902;19;140504;-84
2023/07/29 00:09:22;;;;;;;17.50;8.18;;;;;;;;;;7331621;19;139561;-84
2023/07/29 00:11:49;;;;;;;18.38;7.47;;;;;;;;;;7330549;19;140480;-82
2023/07/29 00:14:16;;;;;;;18.02;7.60;;;;;;;;;;7321159;19;140800;-84
2023/07/29 00:16:44;;;;;;;14.10;7.03;;;;;;;;;;7306774;19;140484;-84
2023/07/29 00:19:11;;;;;;;16.42;7.05;;;;;;;;;;7306244;19;140358;-87
2023/07/29 00:21:38;;;;;;;14.85;6.68;;;;;;;;;;7305303;19;141654;-85
2023/07/29 00:24:05;;;;;;;15.82;7.20;;;;;;;;;;7305798;19;140855;-86
2023/07/29 00:26:33;;;;;;;13.55;6.32;;;;;;;;;;7305667;19;140463;-86
2023/07/29 00:29:00;;;;;;;15.02;6.70;;;;;;;;;;7307821;19;140691;-86
2023/07/29 00:31:27;;;;;;;12.40;6.15;;;;;;;;;;7306456;19;140500;-87
2023/07/29 00:33:55;;;;;;;12.98;6.10;;;;;;;;;;7305797;19;141929;-88
2023/07/29 00:36:22;;;;;;;10.50;5.32;;;;;;;;;;7306287;19;140164;-83
2023/07/29 00:41:21;;;;;;;9.30;5.40;;;;;;;;;;7304786;19;142040;-82
2023/07/29 00:43:53;;;;;;;12.50;6.20;;;;;;;;;;7303309;19;142947;-81
2023/07/29 00:46:21;;;;;;;12.13;5.50;;;;;;;;;;7303288;19;140885;-80
2023/07/29 00:48:54;;;;;;;13.45;5.82;;;;;;;;;;7303327;19;141022;-80
2023/07/29 00:51:22;;;;;;;12.50;5.68;;;;;;;;;;7304302;19;141806;-83
2023/07/29 00:53:49;;;;;;;11.98;5.50;;;;;;;;;;7304094;19;141854;-83
2023/07/29 00:56:16;;;;;;;11.20;5.68;;;;;;;;;;7304630;19;140439;-84
2023/07/29 00:58:44;;;;;;;12.93;5.70;;;;;;;;;;7308232;19;140468;-84
2023/07/29 01:01:11;;;;;;;16.30;6.40;;;;;;;;;;7310603;19;140991;-84
2023/07/29 01:03:38;;;;;;;11.13;5.32;;;;;;;;;;7312049;19;142430;-83
2023/07/29 01:06:12;;;;;;;8.35;5.07;;;;;;;;;;7311634;19;141004;-83
2023/07/29 01:09:02;;;;;;;10.88;4.95;;;;;;;;;;7312054;19;140493;-81
2023/07/29 01:11:53;;;;;;;8.20;4.80;;;;;;;;;;7311494;19;140430;-81
2023/07/29 01:14:30;;;;;;;10.65;5.10;;;;;;;;;;7311098;19;140753;-81
2023/07/29 01:17:00;;;;;;;9.25;5.05;;;;;;;;;;7311028;19;140575;-83
2023/07/29 01:19:44;;;;;;;8.68;4.90;;;;;;;;;;7311084;19;140653;-83
2023/07/29 01:22:12;;;;;;;7.90;4.57;;;;;;;;;;7310638;19;140996;-83
2023/07/29 01:24:42;;;;;;;8.35;4.35;;;;;;;;;;7310098;19;141272;-80
2023/07/29 01:27:09;;;;;;;7.37;4.63;;;;;;;;;;7310751;19;140455;-79
2023/07/29 01:29:52;;;;;;;7.78;4.63;;;;;;;;;;7307306;19;140679;-79
2023/07/29 01:32:32;;;;;;;6.50;4.38;;;;;;;;;;7307068;19;141331;-81
2023/07/29 01:35:10;;;;;;;9.63;4.93;;;;;;;;;;7308040;19;141444;-84
2023/07/29 01:37:39;;;;;;;7.32;4.60;;;;;;;;;;7309753;19;140760;-81
2023/07/29 01:40:07;;;;;;;7.38;4.43;;;;;;;;;;7310345;19;140643;-81
2023/07/29 01:42:34;;;;;;;9.25;4.63;;;;;;;;;;7310222;19;140747;-81
2023/07/29 01:45:01;;;;;;;6.70;4.35;;;;;;;;;;7305998;19;142126;-80
2023/07/29 01:47:28;;;;;;;9.52;4.70;;;;;;;;;;7309798;19;140608;-85
2023/07/29 01:49:55;;;;;;;9.13;4.45;;;;;;;;;;7311101;19;140381;-82
2023/07/29 01:52:22;;;;;;;9.38;4.20;;;;;;;;;;7309706;19;141803;-81
2023/07/29 01:54:49;;;;;;;8.23;4.63;;;;;;;;;;7309669;19;141969;-80
2023/07/29 01:57:16;;;;;;;9.15;4.72;;;;;;;;;;7307851;19;140882;-80
2023/07/29 01:59:44;;;;;;;7.53;4.50;;;;;;;;;;7308830;19;141532;-81
2023/07/29 02:02:11;;;;;;;6.45;4.20;;;;;;;;;;7310009;19;140555;-81
2023/07/29 02:04:38;;;;;;;7.13;4.07;;;;;;;;;;7308911;19;142601;-81
2023/07/29 02:07:05;;;;;;;7.13;3.92;;;;;;;;;;7308099;19;140426;-79
2023/07/29 02:09:32;;;;;;;7.00;4.10;;;;;;;;;;7306360;19;141011;-81
2023/07/29 02:11:59;;;;;;;6.88;4.00;;;;;;;;;;7309024;19;141575;-82
2023/07/29 02:14:26;;;;;;;5.70;3.65;;;;;;;;;;7307690;19;143219;-80
2023/07/29 02:16:53;;;;;;;7.03;3.70;;;;;;;;;;7309306;19;140470;-81
2023/07/29 02:19:20;;;;;;;7.65;4.05;;;;;;;;;;7308467;19;140562;-79
2023/07/29 02:21:47;;;;;;;7.05;3.80;;;;;;;;;;7308132;19;141389;-77
2023/07/29 02:24:14;;;;;;;6.28;3.90;;;;;;;;;;7308235;19;142063;-78
2023/07/29 02:26:41;;;;;;;6.15;3.50;;;;;;;;;;7308213;19;140525;-77
2023/07/29 02:29:09;;;;;;;7.13;3.53;;;;;;;;;;7306289;19;140423;-78
2023/07/29 02:31:37;;;;;;;5.97;3.67;;;;;;;;;;7304600;19;141426;-78
2023/07/29 02:34:05;;;;;;;5.60;3.63;;;;;;;;;;7307200;19;140471;-79
2023/07/29 02:36:32;;;;;;;7.43;3.55;;;;;;;;;;7308156;19;140612;-78
2023/07/29 02:38:59;;;;;;;3.83;2.90;;;;;;;;;;7308321;19;140510;-79
2023/07/29 02:41:26;;;;;;;6.05;4.00;;;;;;;;;;7307179;19;141035;-79
2023/07/29 02:43:53;;;;;;;4.97;3.35;;;;;;;;;;7307371;19;141929;-81
2023/07/29 02:46:20;;;;;;;4.88;3.22;;;;;;;;;;7307786;19;140498;-80
2023/07/29 02:48:56;;;;;;;5.88;3.72;;;;;;;;;;7307332;19;140742;-80
2023/07/29 02:51:23;;;;;;;5.68;3.38;;;;;;;;;;7308319;19;141944;-80
2023/07/29 02:53:50;;;;;;;4.95;3.35;;;;;;;;;;7306292;19;142229;-79
2023/07/29 02:56:17;;;;;;;4.72;3.20;;;;;;;;;;7305320;19;140537;-81
2023/07/29 02:58:44;;;;;;;4.18;3.17;;;;;;;;;;7306000;19;140474;-79
2023/07/29 03:01:12;;;;;;;6.18;3.72;;;;;;;;;;7308296;19;141678;-79
2023/07/29 03:03:42;;;;;;;5.63;3.80;;;;;;;;;;7306936;19;142582;-79
2023/07/29 03:06:10;;;;;;;6.38;4.55;;;;;;;;;;7308058;19;140455;-79
2023/07/29 03:08:37;;;;;;;8.30;5.18;;;;;;;;;;7305843;19;140348;-79
2023/07/29 03:11:15;;;;;;;5.50;4.28;;;;;;;;;;7307753;19;141526;-80
2023/07/29 03:13:42;;;;;;;5.72;3.88;;;;;;;;;;7307636;19;142082;-79
2023/07/29 03:16:10;;;;;;;4.72;3.72;;;;;;;;;;7307111;19;140606;-79
2023/07/29 03:18:38;;;;;;;6.32;3.88;;;;;;;;;;7308109;19;140669;-77
2023/07/29 03:21:05;;;;;;;5.93;4.15;;;;;;;;;;7305177;19;140478;-78
2023/07/29 03:23:33;;;;;;;5.63;3.90;;;;;;;;;;7303815;19;142040;-78
2023/07/29 03:26:01;;;;;;;4.57;3.40;;;;;;;;;;7306442;19;140469;-77
2023/07/29 03:28:28;;;;;;;6.25;3.40;;;;;;;;;;7307069;19;140545;-78
2023/07/29 03:30:56;;;;;;;5.60;3.60;;;;;;;;;;7306196;19;141798;-82
2023/07/29 03:33:24;;;;;;;6.10;3.85;;;;;;;;;;7305238;19;141927;-79
2023/07/29 03:35:51;;;;;;;4.57;3.13;;;;;;;;;;7306695;19;140469;-79
2023/07/29 03:38:19;;;;;;;10.88;4.13;;;;;;;;;;7303663;19;140483;-81
2023/07/29 03:40:46;;;;;;;5.28;3.40;;;;;;;;;;7306621;19;140968;-81
2023/07/29 03:43:16;;;;;;;5.38;3.13;;;;;;;;;;7306412;19;142512;31
2023/07/29 03:45:43;;;;;;;3.97;3.08;;;;;;;;;;7306156;19;140486;-81
2023/07/29 03:48:11;;;;;;;4.88;2.95;;;;;;;;;;7303169;19;140668;-81
2023/07/29 03:50:38;;;;;;;4.80;3.00;;;;;;;;;;7305046;19;140829;-80
2023/07/29 03:53:05;;;;;;;4.80;3.13;;;;;;;;;;7304808;19;141717;-80
2023/07/29 03:55:33;;;;;;;5.30;3.22;;;;;;;;;;7305715;19;140355;-80
2023/07/29 03:58:00;;;;;;;4.03;2.55;;;;;;;;;;7306187;19;140701;-80
2023/07/29 04:00:27;;;;;;;5.32;3.28;;;;;;;;;;7305023;19;140781;-81
2023/07/29 04:02:54;;;;;;;4.85;3.10;;;;;;;;;;7303763;19;141958;-80
2023/07/29 04:05:22;;;;;;;4.80;3.20;;;;;;;;;;7305712;19;140505;-79
2023/07/29 04:07:49;;;;;;;5.03;2.92;;;;;;;;;;7302360;19;140833;-81
2023/07/29 04:10:31;;;;;;;6.57;2.90;;;;;;;;;;7299410;19;143942;-82
2023/07/29 04:13:01;;;;;;;4.15;2.53;;;;;;;;;;7301488;19;141992;-82
2023/07/29 04:15:29;;;;;;;5.05;2.72;;;;;;;;;;7296987;19;140778;-82
2023/07/29 04:17:56;;;;;;;5.10;2.65;;;;;;;;;;7300734;19;140955;-83
2023/07/29 04:20:24;;;;;;;5.40;3.08;;;;;;;;;;7300577;19;140857;-83
2023/07/29 04:22:52;;;;;;;6.47;3.10;;;;;;;;;;7304691;19;141603;-81
2023/07/29 04:25:20;;;;;;;5.90;2.85;;;;;;;;;;7303881;19;140348;-82
2023/07/29 04:28:04;;;;;;;10.10;3.75;;;;;;;;;;7302970;19;140579;-81
2023/07/29 04:30:32;;;;;;;3.80;2.80;;;;;;;;;;7303687;19;141073;-78
2023/07/29 04:32:59;;;;;;;3.90;2.50;;;;;;;;;;7307114;19;140954;-80
2023/07/29 04:35:27;;;;;;;4.30;2.67;;;;;;;;;;7311569;19;140555;-80
2023/07/29 04:37:54;;;;;;;3.95;2.55;;;;;;;;;;7312265;19;140480;-78
2023/07/29 04:40:22;;;;;;;4.38;2.67;;;;;;;;;;7310866;19;141953;-79
2023/07/29 04:42:51;;;;;;;4.05;2.70;;;;;;;;;;7310874;19;140643;-78
2023/07/29 04:45:18;;;;;;;3.65;2.50;;;;;;;;;;7311386;19;140482;-79
2023/07/29 04:47:45;;;;;;;5.68;3.13;;;;;;;;;;7311810;19;140545;-80
2023/07/29 04:50:12;;;;;;;4.43;2.83;;;;;;;;;;7311859;19;140961;-79
2023/07/29 04:52:40;;;;;;;4.72;2.63;;;;;;;;;;7309798;19;140988;-80
2023/07/29 04:55:07;;;;;;;4.22;2.50;;;;;;;;;;7310708;19;140652;-79
2023/07/29 04:57:34;;;;;;;4.00;2.50;;;;;;;;;;7310334;19;140640;-80
2023/07/29 05:00:02;;;;;;;4.80;2.92;;;;;;;;;;7309995;19;141425;-80
2023/07/29 05:02:29;;;;;;;9.88;3.53;;;;;;;;;;7307245;19;148220;-79
2023/07/29 05:04:57;;;;;;;4.55;2.60;;;;;;;;;;7310120;19;141015;-80
2023/07/29 05:07:24;;;;;;;3.63;2.50;;;;;;;;;;7311239;19;140264;-81
2023/07/29 05:09:51;;;;;;;4.80;2.83;;;;;;;;;;7310820;19;141149;-82
2023/07/29 05:12:18;;;;;;;3.47;2.53;;;;;;;;;;7309989;19;143065;-79
2023/07/29 05:14:45;;;;;;;3.83;2.50;;;;;;;;;;7311114;19;140468;-80
2023/07/29 05:17:15;;;;;;;3.88;2.78;;;;;;;;;;7309030;19;140527;-80
2023/07/29 05:19:42;;;;;;;;;;;;;;;;;;7312391;19;141194;-79
2023/07/29 05:22:10;;;;;;;2.85;2.45;;;;;;;;;;7308576;19;141137;-79
2023/07/29 05:24:37;;;;;;;3.92;2.58;;;;;;;;;;7309665;19;140564;-80
2023/07/29 05:27:04;;;;;;;3.17;2.38;;;;;;;;;;7309509;19;140731;-80
2023/07/29 05:29:31;;;;;;;2.95;2.10;;;;;;;;;;7310581;19;142016;-80
2023/07/29 05:31:58;;;;;;;5.03;3.05;;;;;;;;;;7309416;19;140757;-82
2023/07/29 05:34:26;;;;;;;3.75;2.30;;;;;;;;;;7307516;19;144817;-80
2023/07/29 05:36:53;;;;;;;5.00;2.70;;;;;;;;;;7309765;19;140425;-80
2023/07/29 05:39:21;;;;;;;3.58;2.10;;;;;;;;;;7307846;19;141110;-81
2023/07/29 05:41:48;;;;;;;3.42;2.17;;;;;;;;;;7309612;19;142290;-81
2023/07/29 05:44:15;;;;;;;2.60;2.30;;;;;;;;;;7305859;19;140894;-80
2023/07/29 05:46:42;;;;;;;3.38;2.35;;;;;;;;;;7309131;19;140465;-82
2023/07/29 05:49:10;;;;;;;2.85;2.15;;;;;;;;;;7308029;19;141190;-80
2023/07/29 05:51:37;;;;;;;4.10;2.30;;;;;;;;;;7309527;19;142781;-81
2023/07/29 05:54:04;;;;;;;3.80;2.35;;;;;;;;;;7308364;19;140665;-82
2023/07/29 05:56:31;;;;;;;3.55;2.38;;;;;;;;;;7308705;19;140850;-84
2023/07/29 05:58:59;;;;;;;3.05;2.13;;;;;;;;;;7309429;19;141252;-82
2023/07/29 06:01:26;;;;;;;3.42;2.20;;;;;;;;;;7305548;19;143204;-81
2023/07/29 06:03:53;;;;;;;2.25;1.83;;;;;;;;;;7306475;19;140972;-80
2023/07/29 06:06:23;;;;;;;2.80;2.30;;;;;;;;;;7309523;19;140609;-80
2023/07/29 06:08:50;;;;;;;3.30;2.20;;;;;;;;;;7308813;19;140926;-81
2023/07/29 06:11:17;;;;;;;4.30;2.20;;;;;;;;;;7305617;19;141091;-80
2023/07/29 06:13:45;;;;;;;3.17;1.95;;;;;;;;;;7307565;19;140509;-80
2023/07/29 06:16:13;;;;;;;2.38;1.92;;;;;;;;;;7309071;19;140605;-81
2023/07/29 06:18:41;;;;;;;3.58;2.15;;;;;;;;;;7308547;19;141266;-82
2023/07/29 06:21:11;;;;;;;3.75;2.15;;;;;;;;;;7309090;19;141870;-81
2023/07/29 06:23:38;;;;;;;3.53;2.00;;;;;;;;;;7310579;19;140390;-79
2023/07/29 06:26:06;;;;;;;3.47;2.00;;;;;;;;;;7310324;19;140778;-80
2023/07/29 06:28:34;;;;;;;3.15;2.08;;;;;;;;;;7313238;19;140968;-78
2023/07/29 06:31:01;;;;;;;3.05;2.28;;;;;;;;;;7330476;19;142542;-83
2023/07/29 06:33:28;;;;;;;3.45;1.80;;;;;;;;;;7329366;19;141089;-83
2023/07/29 06:35:56;;;;;;;3.40;2.03;;;;;;;;;;7329312;19;140172;-93
2023/07/29 06:38:23;;;;;;;2.25;1.92;;;;;;;;;;7328796;19;142290;-88
2023/07/29 06:40:50;;;;;;;2.95;2.00;;;;;;;;;;7327804;19;141716;-90
2023/07/29 06:43:17;;;;;;;3.95;2.25;;;;;;;;;;7313455;19;140542;-81
2023/07/29 06:45:44;;;;;;;3.03;2.35;;;;;;;;;;7309749;19;140454;-74
2023/07/29 06:48:11;;;;;;;3.05;2.05;;;;;;;;;;7308570;19;141331;-73
2023/07/29 06:50:39;;;;;;;1.65;1.55;;;;;;;;;;7309142;19;141595;-74
2023/07/29 06:53:06;;;;;;;3.80;2.17;;;;;;;;;;7314920;19;140634;-74
2023/07/29 06:55:33;;;;;;;2.00;1.80;;;;;;;;;;7309301;19;140433;-74
2023/07/29 06:58:00;;;;;;;2.88;1.90;;;;;;;;;;7304141;19;140853;-74
2023/07/29 07:00:27;;;;;;;3.28;2.00;;;;;;;;;;7305410;19;142399;-74
2023/07/29 07:02:54;;;;;;;2.45;2.15;;;;;;;;;;7306493;19;140623;-75
2023/07/29 07:05:22;;;;;;;1.90;1.70;;;;;;;;;;7306637;19;140863;-74
2023/07/29 07:07:49;;;;;;;3.95;2.10;;;;;;;;;;7305069;19;142027;-75
2023/07/29 07:10:16;;;;;;;2.47;2.00;;;;;;;;;;7304840;19;142551;-73
2023/07/29 07:15:29;;;;;;;5.75;2.97;;;;;;;;;;7306357;19;140577;-76
2023/07/29 07:17:56;;;;;;;8.30;3.38;;;;;;;;;;7304560;19;140866;-74
2023/07/29 07:20:23;;;;;;;6.60;3.20;;;;;;;;;;7306010;19;142707;-75
2023/07/29 07:25:20;;;;;;;8.43;3.60;;;;;;;;;;7302717;19;141363;-77
2023/07/29 07:27:50;;;;;;;10.77;4.70;;;;;;;;;;7304238;19;141669;-75
2023/07/29 07:30:17;;;;;;;6.93;3.93;;;;;;;;;;7307221;19;142149;-75
2023/07/29 07:32:45;;;;;;;8.23;3.72;;;;;;;;;;7306159;19;140532;-75
2023/07/29 07:35:12;;;;;;;10.88;4.53;;;;;;;;;;7306347;19;140714;-76
2023/07/29 07:37:39;;;;;;;26.27;7.15;;;;;;;;;;7304497;19;142069;-73
2023/07/29 07:40:06;;;;;;;17.80;5.57;;;;;;;;;;7306338;19;140372;-74
2023/07/29 07:42:35;;;;;;;16.65;5.35;;;;;;;;;;7305861;19;140844;-73
2023/07/29 07:45:02;;;;;;;15.38;5.28;;;;;;;;;;7305224;19;140619;-72
2023/07/29 07:47:29;;;;;;;12.80;5.28;;;;;;;;;;7305197;19;141167;-73
2023/07/29 07:49:56;;;;;;;10.82;4.65;;;;;;;;;;7304113;19;140793;-73
2023/07/29 07:52:23;;;;;;;12.95;4.72;;;;;;;;;;7305787;19;140897;-73
2023/07/29 07:54:54;;;;;;;9.82;4.60;;;;;;;;;;7303953;19;140633;-74
2023/07/29 07:57:21;;;;;;;9.77;5.55;;;;;;;;;;7304880;19;141274;-73
2023/07/29 07:59:48;;;;;;;8.13;4.80;;;;;;;;;;7305037;19;141711;-73
2023/07/29 08:02:15;;;;;;;9.73;4.93;;;;;;;;;;7304652;19;140524;-73
2023/07/29 08:04:43;;;;;;;10.30;5.38;;;;;;;;;;7303524;19;140874;-73
2023/07/29 08:07:13;;;;;;;7.70;4.33;;;;;;;;;;7303305;19;140510;-74
2023/07/29 08:09:40;;;;;;;11.98;4.93;;;;;;;;;;7304727;19;141838;-73
2023/07/29 08:12:07;;;;;;;10.73;4.43;;;;;;;;;;7304666;19;140496;-73
2023/07/29 08:14:34;;;;;;;7.47;4.57;;;;;;;;;;7303584;19;140833;-73
2023/07/29 08:17:01;;;;;;;9.15;4.00;;;;;;;;;;7302673;19;140862;-73
2023/07/29 08:19:28;;;;;;;9.07;3.92;;;;;;;;;;7305978;19;142037;-74
2023/07/29 08:21:56;;;;;;;9.27;3.85;;;;;;;;;;7305193;19;140597;-74
2023/07/29 08:24:23;;;;;;;6.25;4.07;;;;;;;;;;7304366;19;140586;-74
2023/07/29 08:26:50;;;;;;;7.53;3.60;;;;;;;;;;7304214;19;141777;-74
2023/07/29 08:29:17;;;;;;;8.70;3.88;;;;;;;;;;7304420;19;141538;-74
2023/07/29 08:31:44;;;;;;;6.40;3.60;;;;;;;;;;7302753;19;140800;-74
2023/07/29 08:34:11;;;;;;;6.85;3.55;;;;;;;;;;7303944;19;140928;-74
2023/07/29 08:36:38;;;;;;;5.50;3.28;;;;;;;;;;7303994;19;141816;-74
2023/07/29 08:39:05;;;;;;;6.88;3.50;;;;;;;;;;7303851;19;140724;-74
2023/07/29 08:41:37;;;;;;;7.40;3.45;;;;;;;;;;7304085;19;140650;-74
2023/07/29 08:44:08;;;;;;;7.82;3.28;;;;;;;;;;7304507;19;140627;-74
2023/07/29 08:46:38;;;;;;;7.25;3.30;;;;;;;;;;7302703;19;141916;-74
2023/07/29 08:49:06;;;;;;;6.22;3.65;;;;;;;;;;7304399;19;142422;-74
2023/07/29 08:51:34;;;;;;;6.18;3.58;;;;;;;;;;7304430;19;140765;-74
2023/07/29 08:54:01;;;;;;;7.00;3.50;;;;;;;;;;7303824;19;141202;-73
2023/07/29 08:56:31;;;;;;;6.03;3.15;;;;;;;;;;7303394;19;140921;-73
2023/07/29 08:59:00;;;;;;;6.27;3.40;;;;;;;;;;7303269;19;142726;-73
2023/07/29 09:01:27;;;;;;;4.70;3.03;;;;;;;;;;7301556;19;140640;-73
2023/07/29 09:03:55;;;;;;;9.68;3.75;;;;;;;;;;7302570;19;140400;-73
2023/07/29 09:06:25;;;;;;;5.95;3.65;;;;;;;;;;7300623;19;141407;-73
2023/07/29 09:08:52;;;;;;;;;;;;;;;;;;7304089;19;142737;-73
2023/07/29 09:11:20;;;;;;;7.35;3.85;;;;;;;;;;7305575;19;140487;-73
2023/07/29 09:13:47;;;;;;;8.23;3.58;;;;;;;;;;7304585;19;140450;-73
2023/07/29 09:16:14;;;;;;;7.30;4.15;;;;;;;;;;7303765;19;141023;-73
2023/07/29 09:18:42;;;;;;;6.53;3.95;;;;;;;;;;7306086;19;140792;-73
2023/07/29 09:21:09;;;;;;;6.65;3.85;;;;;;;;;;7311483;19;141865;-73
2023/07/29 09:23:41;;;;;;;8.48;4.50;;;;;;;;;;7310693;19;140655;-73
2023/07/29 09:26:08;;;;;;;9.32;4.43;;;;;;;;;;7308419;19;141531;-73
2023/07/29 09:28:36;;;;;;;7.07;4.25;;;;;;;;;;7306351;19;141926;-73
2023/07/29 09:31:04;;;;;;;7.38;4.63;;;;;;;;;;7306449;19;140551;-73
2023/07/29 09:33:37;;;;;;;7.60;4.43;;;;;;;;;;7306982;19;140607;-73
2023/07/29 09:36:09;;;;;;;7.00;4.53;;;;;;;;;;7307403;19;143492;-73
2023/07/29 09:38:36;;;;;;;11.68;5.75;;;;;;;;;;7307312;19;141996;-74
2023/07/29 09:41:03;;;;;;;5.63;4.07;;;;;;;;;;7308268;19;140442;-73
2023/07/29 09:43:33;;;;;;;6.05;3.70;;;;;;;;;;7307560;19;140565;-72
2023/07/29 09:46:01;;;;;;;6.85;4.20;;;;;;;;;;7307466;19;142182;-73
2023/07/29 09:48:28;;;;;;;5.45;3.83;;;;;;;;;;7306016;19;142073;-73
2023/07/29 09:50:56;;;;;;;6.65;3.97;;;;;;;;;;7307730;19;140845;-73
2023/07/29 09:53:24;;;;;;;5.75;3.50;;;;;;;;;;7307295;19;140791;-73
2023/07/29 09:55:53;;;;;;;6.38;3.75;;;;;;;;;;7307151;19;141350;-73
2023/07/29 09:58:28;;;;;;;7.82;3.60;;;;;;;;;;7308508;19;142672;-73
2023/07/29 10:00:55;;;;;;;5.65;3.58;;;;;;;;;;7306121;19;141226;-73
2023/07/29 10:03:22;;;;;;;6.45;3.80;;;;;;;;;;7306406;19;140602;-73
2023/07/29 10:05:49;;;;;;;6.32;3.80;;;;;;;;;;7306088;19;141290;-73
2023/07/29 10:08:17;;;;;;;5.47;3.42;;;;;;;;;;7307045;19;143066;-73
2023/07/29 10:10:45;;;;;;;4.65;3.53;;;;;;;;;;7306530;19;140555;-73
2023/07/29 10:13:12;;;;;;;8.65;3.80;;;;;;;;;;7305344;19;140434;-73
2023/07/29 10:15:40;;;;;;;5.68;3.03;;;;;;;;;;7306739;19;142138;-73
2023/07/29 10:18:07;;;;;;;6.95;3.67;;;;;;;;;;7305542;19;140753;-73
2023/07/29 10:20:35;;;;;;;3.65;3.10;;;;;;;;;;7306798;19;140722;-73
2023/07/29 10:23:05;;;;;;;7.00;3.75;;;;;;;;;;7305870;19;140650;-73
2023/07/29 10:25:39;;;;;;;6.43;3.10;;;;;;;;;;7142377;19;3162966;-74
2023/07/29 10:28:07;;;;;;;5.82;3.00;;;;;;;;;;7307186;19;141825;-73
2023/07/29 10:30:34;;;;;;;7.03;3.13;;;;;;;;;;7307005;19;140279;-75
2023/07/29 10:33:04;;;;;;;4.75;3.00;;;;;;;;;;7306610;19;140737;-73
2023/07/29 10:35:33;;;;;;;7.38;3.10;;;;;;;;;;7307731;19;141692;-73
2023/07/29 10:38:01;;;;;;;5.40;3.20;;;;;;;;;;7307857;19;140804;-72
2023/07/29 10:40:45;;;;;;;4.97;2.97;;;;;;;;;;7307884;19;140914;-73
2023/07/29 10:43:13;;;;;;;4.88;3.00;;;;;;;;;;7307595;19;140524;-75
2023/07/29 10:45:41;;;;;;;5.22;2.97;;;;;;;;;;7307361;19;141568;-73
2023/07/29 10:48:11;;;;;;;5.20;2.78;;;;;;;;;;7307500;19;140649;-73
2023/07/29 10:50:38;;;;;;;5.25;2.58;;;;;;;;;;7307817;19;140362;-74
2023/07/29 10:53:05;;;;;;;5.45;2.63;;;;;;;;;;7307303;19;140445;-74
2023/07/29 10:55:34;;;;;;;4.57;2.65;;;;;;;;;;7305699;19;141138;-75
2023/07/29 10:58:07;;;;;;;6.65;2.70;;;;;;;;;;7306279;19;140984;-74
2023/07/29 11:00:35;;;;;;;3.80;2.33;;;;;;;;;;7307926;19;140578;-74
2023/07/29 11:03:07;;;;;;;4.75;2.28;;;;;;;;;;7306644;19;140549;-74
2023/07/29 11:05:42;;;;;;;5.20;2.20;;;;;;;;;;7307134;19;141879;-73
2023/07/29 11:08:36;;;;;;;4.18;2.13;;;;;;;;;;7307199;19;141376;-73
2023/07/29 11:11:04;;;;;;;6.00;2.42;;;;;;;;;;7303600;19;140516;-72
2023/07/29 11:13:35;;;;;;;6.80;2.13;;;;;;;;;;7303513;19;140683;-73
2023/07/29 11:16:02;;;;;;;2.95;2.13;;;;;;;;;;7304719;19;141773;-73
2023/07/29 11:18:34;;;;;;;4.80;2.10;;;;;;;;;;7304047;19;142918;-72
2023/07/29 11:21:04;;;;;;;6.47;2.40;;;;;;;;;;7304296;19;140568;-73
2023/07/29 11:23:36;;;;;;;6.05;2.10;;;;;;;;;;7304448;19;140636;-72
2023/07/29 11:26:04;;;;;;;5.45;2.20;;;;;;;;;;7304198;19;140456;-74
2023/07/29 11:28:37;;;;;;;5.45;1.80;;;;;;;;;;7304149;19;141433;-73
2023/07/29 11:31:04;;;;;;;2.90;1.60;;;;;;;;;;7304998;19;140622;-73
2023/07/29 11:33:32;;;;;;;3.90;1.77;;;;;;;;;;7304997;19;140962;-73
2023/07/29 11:36:00;;;;;;;4.28;2.03;;;;;;;;;;7304080;19;140957;-71
2023/07/29 11:38:27;;;;;;;5.82;1.70;;;;;;;;;;7304982;19;140763;-72
2023/07/29 11:41:05;;;;;;;3.40;1.98;;;;;;;;;;7306107;19;140636;-73
2023/07/29 11:43:35;;;;;;;6.93;2.28;;;;;;;;;;7303501;19;140605;-74
2023/07/29 11:46:02;;;;;;;4.23;1.83;;;;;;;;;;7305386;19;141826;-74
2023/07/29 11:48:31;;;;;;;3.97;1.67;;;;;;;;;;7302146;19;141841;-73
2023/07/29 11:50:59;;;;;;;5.15;1.92;;;;;;;;;;7304233;19;140536;-74
2023/07/29 11:53:27;;;;;;;5.90;2.15;;;;;;;;;;7306057;19;140518;-74
2023/07/29 11:55:54;;;;;;;5.32;2.42;;;;;;;;;;7306284;19;141077;-75
2023/07/29 11:58:21;;;;;;;6.28;1.83;;;;;;;;;;7305774;19;141895;-76
2023/07/29 12:00:49;;;;;;;7.72;2.22;;;;;;;;;;7305011;19;140605;-73
2023/07/29 12:03:17;;;;;;;5.85;2.05;;;;;;;;;;7303364;19;140764;-75
2023/07/29 12:05:45;;;;;;;35.80;31.95;;;;;;;;;;7303872;19;140818;-75
2023/07/29 12:08:12;;;;;;;49.10;41.78;;;;;;;;;;7306535;19;141533;-76
2023/07/29 12:10:39;;;;;;;59.85;50.88;;;;;;;;;;7303449;19;140430;-76
2023/07/29 12:13:07;;;;;;;131.32;85.10;;;;;;;;;;7305596;19;140581;-75
2023/07/29 12:16:54;;;;;;;3.50;1.40;;;;;;;;;;7345791;19;140563;-73
2023/07/29 12:19:25;;;;;;;4.05;1.60;;;;;;;;;;7339623;19;140799;-73
2023/07/29 12:21:52;;;;;;;3.78;1.60;;;;;;;;;;7341998;19;142284;-74
2023/07/29 12:24:22;;;;;;;3.50;1.17;;;;;;;;;;7341145;19;141060;-73
2023/07/29 12:26:49;;;;;;;4.50;1.23;;;;;;;;;;7341326;19;140644;-75
2023/07/29 12:29:21;;;;;;;4.28;1.52;;;;;;;;;;7340931;19;140625;-74
2023/07/29 12:31:49;;;;;;;4.05;1.52;;;;;;;;;;7339002;19;140495;-73
2023/07/29 12:34:20;;;;;;;5.90;1.67;;;;;;;;;;7338128;19;142054;-74
2023/07/29 12:36:49;;;;;;;3.15;1.58;;;;;;;;;;7340118;19;140597;-74
2023/07/29 12:39:39;;;;;;;4.83;1.37;;;;;;;;;;7340494;19;140036;-74
2023/07/29 12:42:06;;;;;;;4.85;1.42;;;;;;;;;;7337730;19;140875;-74
2023/07/29 12:44:35;;;;;;;4.90;1.60;;;;;;;;;;7339467;19;140952;-74
2023/07/29 12:47:02;;;;;;;4.47;1.50;;;;;;;;;;7341224;19;140506;-74
2023/07/29 12:49:30;;;;;;;5.90;1.73;;;;;;;;;;7339459;19;140428;-75
2023/07/29 12:51:57;;;;;;;4.35;1.92;;;;;;;;;;7339446;19;141960;-74
2023/07/29 12:54:24;;;;;;;6.75;1.90;;;;;;;;;;7338129;19;141982;-74
2023/07/29 12:56:52;;;;;;;6.63;1.90;;;;;;;;;;7339388;19;140580;-73
2023/07/29 12:59:19;;;;;;;4.60;2.00;;;;;;;;;;7339399;19;140806;-73
2023/07/29 13:01:46;;;;;;;5.75;1.88;;;;;;;;;;7340015;19;141196;-74
2023/07/29 13:04:13;;;;;;;3.10;1.80;;;;;;;;;;7338422;19;140761;-74
2023/07/29 13:06:41;;;;;;;5.00;1.83;;;;;;;;;;7345968;19;140107;-73
2023/07/29 13:09:08;;;;;;;8.27;4.93;;;;;;;;;;7355109;19;140647;-74
2023/07/29 13:11:36;;;;;;;5.82;2.05;;;;;;;;;;7359329;19;140254;-74
2023/07/29 13:14:03;;;;;;;6.57;2.22;;;;;;;;;;7356163;19;142040;-76
2023/07/29 13:16:30;;;;;;;6.22;1.98;;;;;;;;;;7354170;19;140549;-74
2023/07/29 13:18:57;;;;;;;4.20;1.92;;;;;;;;;;7345498;19;140345;-74
2023/07/29 13:21:24;;;;;;;10.38;2.78;;;;;;;;;;7340425;19;141191;-74
2023/07/29 13:23:51;;;;;;;4.97;1.95;;;;;;;;;;7339966;19;140912;-73
2023/07/29 13:26:18;;;;;;;6.53;2.40;;;;;;;;;;7332054;19;140621;-74
2023/07/29 13:28:45;;;;;;;4.10;1.80;;;;;;;;;;7310724;19;140962;-72
2023/07/29 13:31:13;;;;;;;4.88;2.38;;;;;;;;;;7308473;19;141318;-73
2023/07/29 13:33:40;;;;;;;8.25;3.90;;;;;;;;;;7306867;19;141783;-73
2023/07/29 13:36:08;;;;;;;9.25;5.53;;;;;;;;;;7309797;19;140520;-74
2023/07/29 13:38:35;;;;;;;6.70;2.53;;;;;;;;;;7310406;19;140487;-72
2023/07/29 13:41:02;;;;;;;5.68;2.20;;;;;;;;;;7309278;19;141371;-73
2023/07/29 13:43:30;;;;;;;5.85;1.88;;;;;;;;;;7309093;19;142577;-74
2023/07/29 13:45:57;;;;;;;4.00;1.83;;;;;;;;;;7310202;19;140560;-73
2023/07/29 13:48:26;;;;;;;3.92;2.00;;;;;;;;;;7308474;19;140640;-73
2023/07/29 13:50:54;;;;;;;3.92;1.80;;;;;;;;;;7308274;19;141464;-72
2023/07/29 13:53:21;;;;;;;5.00;1.70;;;;;;;;;;7309106;19;141857;-75
2023/07/29 13:55:49;;;;;;;6.80;2.25;;;;;;;;;;7309308;19;140726;-74
2023/07/29 13:58:16;;;;;;;7.78;2.10;;;;;;;;;;7309355;19;140491;-73
2023/07/29 14:00:43;;;;;;;3.20;1.80;;;;;;;;;;7307583;19;141743;-73
2023/07/29 14:03:10;;;;;;;6.20;1.85;;;;;;;;;;7308902;19;140702;-74
2023/07/29 14:05:37;;;;;;;6.40;1.88;;;;;;;;;;7309055;19;140568;-74
2023/07/29 14:08:04;;;;;;;5.03;2.03;;;;;;;;;;7308470;19;140530;-74
2023/07/29 14:10:31;;;;;;;4.07;1.52;;;;;;;;;;7308403;19;140667;-74
2023/07/29 14:12:58;;;;;;;3.20;1.60;;;;;;;;;;7307244;19;140909;-74
2023/07/29 14:15:25;;;;;;;4.93;1.70;;;;;;;;;;7311948;19;140713;-73
2023/07/29 14:17:52;;;;;;;6.35;2.20;;;;;;;;;;7308446;19;140550;-74
2023/07/29 14:20:20;;;;;;;5.07;1.92;;;;;;;;;;7307488;19;141166;-75
2023/07/29 14:22:49;;;;;;;4.35;1.70;;;;;;;;;;7306885;19;141662;-73
2023/07/29 14:25:16;;;;;;;5.20;1.65;;;;;;;;;;7308834;19;140409;-75
2023/07/29 14:27:43;;;;;;;7.97;1.52;;;;;;;;;;7308202;19;140556;-74
2023/07/29 14:30:10;;;;;;;5.53;1.88;;;;;;;;;;7308227;19;140946;-74
2023/07/29 14:32:37;;;;;;;3.67;1.65;;;;;;;;;;7306597;19;142152;-73
2023/07/29 14:35:04;;;;;;;4.30;1.45;;;;;;;;;;7306282;19;140866;-74
2023/07/29 14:37:31;;;;;;;2.72;1.35;;;;;;;;;;7306773;19;140525;-74
2023/07/29 14:39:59;;;;;;;6.25;2.10;;;;;;;;;;7305009;19;141678;-73
2023/07/29 14:42:29;;;;;;;5.57;1.50;;;;;;;;;;7306806;19;141357;-74
2023/07/29 14:44:58;;;;;;;3.40;1.20;;;;;;;;;;7306960;19;140556;-74